N397BE CYXU-CYXU
Flight info
| Callsign | N397BE |
|---|---|
| Flight time | N/A |
| Altitude | |
| Route | |
| Aircraft | C172 |
Departure
| Time | 2026-04-20 22:48 |
|---|---|
| Airport | London International Airport (CYXU) |
Arrival
| Time | N/A |
|---|---|
| Airport | London International Airport (CYXU) |
| Time | Latitude | Longitude | Altitude | Speed | Heading |
|---|---|---|---|---|---|
| 2026-04-20 22:42 | 43.03576 | -81.16196 | 907 ft | 0 kts | 79° |
| 2026-04-20 22:44 | 43.03591 | -81.16175 | 907 ft | 11 kts | 5° |
| 2026-04-20 22:44 | 43.03649 | -81.16112 | 909 ft | 13 kts | 75° |
| 2026-04-20 22:44 | 43.03667 | -81.15998 | 908 ft | 11 kts | 79° |
| 2026-04-20 22:44 | 43.03680 | -81.15901 | 908 ft | 10 kts | 78° |
| 2026-04-20 22:45 | 43.03697 | -81.15788 | 906 ft | 18 kts | 78° |
| 2026-04-20 22:45 | 43.03674 | -81.15658 | 908 ft | 12 kts | 139° |
| 2026-04-20 22:45 | 43.03588 | -81.15555 | 907 ft | 25 kts | 138° |
| 2026-04-20 22:45 | 43.03440 | -81.15375 | 910 ft | 27 kts | 139° |
| 2026-04-20 22:46 | 43.03302 | -81.15211 | 910 ft | 23 kts | 139° |
| 2026-04-20 22:46 | 43.03299 | -81.15143 | 911 ft | 5 kts | 34° |
| 2026-04-20 22:46 | 43.03320 | -81.15118 | 912 ft | 5 kts | 44° |
| 2026-04-20 22:46 | 43.03347 | -81.15081 | 913 ft | 7 kts | 45° |
| 2026-04-20 22:47 | 43.03389 | -81.15029 | 914 ft | 12 kts | 30° |
| 2026-04-20 22:47 | 43.03480 | -81.15110 | 914 ft | 31 kts | 318° |
| 2026-04-20 22:47 | 43.03768 | -81.15453 | 911 ft | 76 kts | 318° |
| 2026-04-20 22:47 | 43.04225 | -81.16014 | 1000 ft | 94 kts | 317° |
| 2026-04-20 22:48 | 43.04666 | -81.16635 | 1297 ft | 85 kts | 311° |
| 2026-04-20 22:48 | 43.05108 | -81.17080 | 1504 ft | 84 kts | 349° |
| 2026-04-20 22:48 | 43.05725 | -81.16971 | 1646 ft | 93 kts | 36° |
| 2026-04-20 22:48 | 43.05887 | -81.16182 | 1882 ft | 92 kts | 111° |
| 2026-04-20 22:49 | 43.05488 | -81.15401 | 2011 ft | 104 kts | 131° |
| 2026-04-20 22:49 | 43.05056 | -81.14622 | 2287 ft | 98 kts | 127° |
| 2026-04-20 22:49 | 43.04608 | -81.13868 | 2366 ft | 110 kts | 136° |
| 2026-04-20 22:49 | 43.04071 | -81.13154 | 2552 ft | 109 kts | 138° |
| 2026-04-20 22:50 | 43.03482 | -81.12382 | 2563 ft | 120 kts | 137° |
| 2026-04-20 22:50 | 43.02898 | -81.11603 | 2528 ft | 114 kts | 140° |
| 2026-04-20 22:50 | 43.02263 | -81.10979 | 2294 ft | 106 kts | 152° |
| 2026-04-20 22:50 | 43.01613 | -81.10593 | 2090 ft | 100 kts | 171° |
| 2026-04-20 22:51 | 43.01061 | -81.10844 | 1922 ft | 90 kts | 242° |
| 2026-04-20 22:51 | 43.01137 | -81.11695 | 1667 ft | 86 kts | 288° |
| 2026-04-20 22:51 | 43.01350 | -81.12424 | 1457 ft | 81 kts | 300° |
| 2026-04-20 22:51 | 43.01714 | -81.13001 | 1225 ft | 80 kts | 320° |
| 2026-04-20 22:52 | 43.02129 | -81.13491 | 1043 ft | 77 kts | 319° |
| 2026-04-20 22:52 | 43.02532 | -81.13973 | 942 ft | 81 kts | 319° |
| 2026-04-20 22:52 | 43.02932 | -81.14447 | 910 ft | 66 kts | 319° |
| 2026-04-20 22:52 | 43.03323 | -81.14917 | 911 ft | 91 kts | 317° |
| 2026-04-20 22:53 | 43.03831 | -81.15539 | 1028 ft | 99 kts | 319° |
| 2026-04-20 22:53 | 43.04334 | -81.16158 | 1228 ft | 94 kts | 315° |
| 2026-04-20 22:53 | 43.04881 | -81.16640 | 1425 ft | 95 kts | 346° |
| 2026-04-20 22:53 | 43.05484 | -81.16400 | 1641 ft | 98 kts | 47° |
| 2026-04-20 22:54 | 43.05644 | -81.15521 | 1851 ft | 99 kts | 109° |
| 2026-04-20 22:54 | 43.05159 | -81.14843 | 1934 ft | 113 kts | 142° |
| 2026-04-20 22:54 | 43.04537 | -81.14169 | 2092 ft | 110 kts | 141° |
| 2026-04-20 22:54 | 43.03972 | -81.13440 | 2217 ft | 115 kts | 134° |
| 2026-04-20 22:55 | 43.03439 | -81.12650 | 2409 ft | 112 kts | 135° |
| 2026-04-20 22:55 | 43.02879 | -81.11930 | 2538 ft | 102 kts | 143° |
| 2026-04-20 22:55 | 43.02281 | -81.11405 | 2044 ft | 107 kts | 142° |
| 2026-04-20 22:55 | 43.01620 | -81.11378 | 1784 ft | 100 kts | 210° |
| 2026-04-20 22:56 | 43.01317 | -81.12135 | 1553 ft | 95 kts | 274° |
| 2026-04-20 22:56 | 43.01628 | -81.12869 | 1314 ft | 85 kts | 317° |
| 2026-04-20 22:56 | 43.02031 | -81.13373 | 1117 ft | 73 kts | 320° |
| 2026-04-20 22:56 | 43.02411 | -81.13827 | 968 ft | 73 kts | 319° |
| 2026-04-20 22:57 | 43.02786 | -81.14273 | 912 ft | 68 kts | 319° |
| 2026-04-20 22:57 | 43.03118 | -81.14679 | 928 ft | 68 kts | 317° |
| 2026-04-20 22:57 | 43.03531 | -81.15202 | 962 ft | 90 kts | 318° |
| 2026-04-20 22:57 | 43.04061 | -81.15819 | 1060 ft | 103 kts | 319° |